Main page
METAR-TAF:

METAR-TAF

Airports :

City of Derry Airport

Derry, Northern Ireland

latitude: 55-03N, longitude: 007-09W, elevation: 9 m

Current weather observation

The report was made 18 hours and 17 minutes ago, at 15:50 UTC
Wind 10 kt from the West
Temperature 9°C
Humidity 66%
Pressure 1032 hPa
Visibility 10 km or more
Scattered clouds at a height of 4000 ft

METAR: EGAE 231550Z 27010KT 9999 SCT040 09/03 Q1032

Time: 10:07 (10:07 UTC)

Forecast

The report was made 23 hours and 3 minutes ago, at 11:04 UTC
Forecast valid from 23 at 12 UTC to 23 at 16 UTC
Wind 11 kt from the West/Southwest
Visibility 10 km or more
Few clouds at a height of 3000 ft
Scattered clouds at a height of 4500 ft

TAF: EGAE 231104Z 2312/2316 25011KT 9999 FEW030 SCT045

Weather observations and forecasts of more than 4000 airports (METAR and TAF reports).

The available stations are represented by yellow and red dots on the map.

Hover mouse over dot to see the name of the station.

Then click to see weather observations and forecasts.

To change the map : click on the green buttons with a black cross to zoom in, on the green button with a dash to zoom out, or on the green arrows for adjacent maps.


METAR-TAF: